Time;durP1;ratioP1;P1;durP2;ratioP2;P2;SDS_P1;SDS_P2;PMS_P1;PMS_P2;Temp;Humidity;BMP_temperature;BMP_pressure;BME280_temperature;BME280_humidity;BME280_pressure;Samples;Min_cycle;Max_cycle;Signal;HPM_P1;HPM_P2
2023/01/16 00:00:06;;;;;;;299.40;137.55;;;;;;;;;;1039792;28;20398;-74
2023/01/16 00:00:37;;;;;;;328.33;137.30;;;;;;;;;;1039823;28;20048;-74
2023/01/16 00:01:07;;;;;;;304.35;144.15;;;;;;;;;;1039815;28;20164;-74
2023/01/16 00:01:38;;;;;;;355.17;146.68;;;;;;;;;;1039605;28;20033;-74
2023/01/16 00:02:08;;;;;;;339.20;145.43;;;;;;;;;;1039796;28;20119;-74
2023/01/16 00:02:39;;;;;;;329.73;145.18;;;;;;;;;;1039825;28;20029;-74
2023/01/16 00:03:09;;;;;;;309.50;139.07;;;;;;;;;;1039362;28;20030;-74
2023/01/16 00:03:40;;;;;;;311.60;141.27;;;;;;;;;;1039540;28;20471;-74
2023/01/16 00:04:10;;;;;;;334.73;144.50;;;;;;;;;;1040632;28;20115;-74
2023/01/16 00:04:41;;;;;;;326.02;139.73;;;;;;;;;;1040946;28;20036;-74
2023/01/16 00:05:11;;;;;;;329.65;139.00;;;;;;;;;;1040781;28;20466;-74
2023/01/16 00:05:42;;;;;;;323.77;142.07;;;;;;;;;;1040873;28;20064;-74
2023/01/16 00:06:13;;;;;;;318.55;143.23;;;;;;;;;;1036647;28;20088;-74
2023/01/16 00:06:44;;;;;;;315.23;139.65;;;;;;;;;;1036899;28;20025;-74
2023/01/16 00:07:14;;;;;;;258.58;124.43;;;;;;;;;;1040628;28;20068;-74
2023/01/16 00:07:45;;;;;;;309.08;126.07;;;;;;;;;;1037040;28;20040;-74
2023/01/16 00:08:16;;;;;;;291.85;124.32;;;;;;;;;;1037157;28;20036;-74
2023/01/16 00:08:48;;;;;;;282.92;125.03;;;;;;;;;;1038135;28;20390;-74
2023/01/16 00:09:18;;;;;;;290.15;121.13;;;;;;;;;;1037007;28;20485;-74
2023/01/16 00:09:49;;;;;;;311.33;129.68;;;;;;;;;;1037112;28;20033;-74
2023/01/16 00:10:20;;;;;;;284.40;126.28;;;;;;;;;;1036616;28;20025;-74
2023/01/16 00:10:50;;;;;;;299.92;126.25;;;;;;;;;;1036916;28;20188;-74
2023/01/16 00:11:21;;;;;;;281.13;122.38;;;;;;;;;;1036958;28;20116;-74
2023/01/16 00:11:51;;;;;;;290.08;126.18;;;;;;;;;;1039940;28;20056;-74
2023/01/16 00:12:22;;;;;;;281.42;127.00;;;;;;;;;;1037120;28;20433;-74
2023/01/16 00:12:52;;;;;;;279.27;125.15;;;;;;;;;;1037104;28;20030;-74
2023/01/16 00:13:23;;;;;;;284.08;126.25;;;;;;;;;;1036985;28;20066;-74
2023/01/16 00:13:54;;;;;;;286.38;132.57;;;;;;;;;;1037178;28;20029;-74
2023/01/16 00:14:24;;;;;;;283.00;131.38;;;;;;;;;;1036633;28;20604;-74
2023/01/16 00:14:55;;;;;;;305.15;127.63;;;;;;;;;;1040126;28;20151;-74
2023/01/16 00:15:25;;;;;;;302.17;132.55;;;;;;;;;;1040686;28;20032;-74
2023/01/16 00:15:56;;;;;;;308.52;132.27;;;;;;;;;;1040970;28;20064;-74
2023/01/16 00:16:27;;;;;;;317.23;138.32;;;;;;;;;;1041065;28;20025;-74
2023/01/16 00:16:58;;;;;;;318.67;135.10;;;;;;;;;;1041251;28;20021;-74
2023/01/16 00:17:29;;;;;;;301.92;131.52;;;;;;;;;;1041012;28;20120;-74
2023/01/16 00:17:59;;;;;;;294.00;134.10;;;;;;;;;;1041157;28;20044;-74
2023/01/16 00:18:30;;;;;;;309.08;136.27;;;;;;;;;;1041123;28;20084;-74
2023/01/16 00:19:00;;;;;;;313.65;133.20;;;;;;;;;;1041196;28;20025;-74
2023/01/16 00:19:31;;;;;;;310.77;134.65;;;;;;;;;;1040956;28;20025;-74
2023/01/16 00:20:02;;;;;;;286.05;131.55;;;;;;;;;;1041242;28;20120;-74
2023/01/16 00:20:33;;;;;;;309.13;133.77;;;;;;;;;;1039995;28;20116;-74
2023/01/16 00:21:03;;;;;;;281.67;127.18;;;;;;;;;;1036713;28;20092;-74
2023/01/16 00:21:34;;;;;;;308.08;135.43;;;;;;;;;;1036444;28;20041;-74
2023/01/16 00:22:04;;;;;;;313.75;133.18;;;;;;;;;;1036760;28;20425;-74
2023/01/16 00:22:35;;;;;;;297.95;129.02;;;;;;;;;;1036858;28;20093;-74
2023/01/16 00:23:05;;;;;;;298.60;127.68;;;;;;;;;;1036962;28;20108;-74
2023/01/16 00:23:36;;;;;;;295.52;129.82;;;;;;;;;;1037012;28;20429;-74
2023/01/16 00:24:07;;;;;;;295.48;128.85;;;;;;;;;;1037098;28;20030;-74
2023/01/16 00:24:38;;;;;;;281.70;132.73;;;;;;;;;;1037038;28;20394;-74
2023/01/16 00:25:08;;;;;;;299.70;127.30;;;;;;;;;;1036633;28;20118;-74
2023/01/16 00:25:41;;;;;;;310.50;131.05;;;;;;;;;;1036738;28;20029;-74
2023/01/16 00:26:11;;;;;;;301.80;123.00;;;;;;;;;;1032576;28;20169;-74
2023/01/16 00:26:42;;;;;;;261.85;119.65;;;;;;;;;;1028922;28;20034;-74
2023/01/16 00:27:13;;;;;;;269.65;118.82;;;;;;;;;;1032559;28;20026;-74
2023/01/16 00:27:43;;;;;;;270.98;113.55;;;;;;;;;;1033256;28;20034;-74
2023/01/16 00:28:14;;;;;;;250.00;118.70;;;;;;;;;;1040881;28;20017;-74
2023/01/16 00:28:44;;;;;;;265.40;119.82;;;;;;;;;;1036786;28;20030;-74
2023/01/16 00:29:15;;;;;;;259.55;118.65;;;;;;;;;;1036803;28;20049;-73
2023/01/16 00:29:45;;;;;;;262.38;114.00;;;;;;;;;;1036919;28;20036;-74
2023/01/16 00:30:16;;;;;;;271.95;116.47;;;;;;;;;;1036652;28;20093;-74
2023/01/16 00:30:46;;;;;;;273.50;120.90;;;;;;;;;;1037137;28;20028;-74
2023/01/16 00:31:18;;;;;;;277.90;116.80;;;;;;;;;;1036943;28;20036;-74
2023/01/16 00:31:48;;;;;;;264.63;117.90;;;;;;;;;;1037080;28;20478;-74
2023/01/16 00:32:19;;;;;;;250.93;114.05;;;;;;;;;;1037030;28;20038;-74
2023/01/16 00:32:49;;;;;;;283.48;118.72;;;;;;;;;;1037147;28;20026;-74
2023/01/16 00:33:20;;;;;;;298.60;124.43;;;;;;;;;;1036953;28;20059;-74
2023/01/16 00:33:51;;;;;;;287.98;123.47;;;;;;;;;;1037082;28;20025;-74
2023/01/16 00:34:21;;;;;;;286.25;123.88;;;;;;;;;;1036641;28;20037;-74
2023/01/16 00:34:52;;;;;;;255.88;116.95;;;;;;;;;;1036895;28;20466;-74
2023/01/16 00:35:22;;;;;;;279.17;122.15;;;;;;;;;;1036754;28;20033;-74
2023/01/16 00:35:53;;;;;;;274.52;124.38;;;;;;;;;;1036840;28;20030;-74
2023/01/16 00:36:23;;;;;;;283.48;120.97;;;;;;;;;;1036744;28;20117;-74
2023/01/16 00:36:54;;;;;;;295.60;126.38;;;;;;;;;;1037086;28;20473;-74
2023/01/16 00:37:24;;;;;;;288.05;121.10;;;;;;;;;;1036896;28;20421;-74
2023/01/16 00:37:55;;;;;;;261.88;124.35;;;;;;;;;;1037128;28;20466;-74
2023/01/16 00:38:25;;;;;;;306.70;130.00;;;;;;;;;;1036607;28;20087;-74
2023/01/16 00:38:56;;;;;;;290.60;130.00;;;;;;;;;;1036678;28;20140;-74
2023/01/16 00:39:26;;;;;;;273.35;133.35;;;;;;;;;;1036523;28;20080;-74
2023/01/16 00:39:57;;;;;;;309.52;140.55;;;;;;;;;;1036735;28;20018;-74
2023/01/16 00:40:28;;;;;;;306.98;137.25;;;;;;;;;;1032595;28;20026;-74
2023/01/16 00:40:58;;;;;;;285.65;130.23;;;;;;;;;;1036815;28;20037;-74
2023/01/16 00:41:29;;;;;;;273.98;136.75;;;;;;;;;;1032320;28;20124;-74
2023/01/16 00:41:59;;;;;;;286.40;135.43;;;;;;;;;;1032751;28;20023;-74
2023/01/16 00:42:30;;;;;;;288.20;136.95;;;;;;;;;;1032461;28;20033;-74
2023/01/16 00:43:00;;;;;;;279.15;128.85;;;;;;;;;;1032781;28;20058;-74
2023/01/16 00:43:31;;;;;;;247.15;121.18;;;;;;;;;;1036697;28;20034;-74
2023/01/16 00:44:02;;;;;;;266.15;124.95;;;;;;;;;;1032728;28;20502;-74
2023/01/16 00:44:32;;;;;;;279.65;127.82;;;;;;;;;;1039764;28;20025;-74
2023/01/16 00:45:03;;;;;;;291.08;134.00;;;;;;;;;;1040147;28;20428;-74
2023/01/16 00:45:34;;;;;;;283.75;127.88;;;;;;;;;;1040549;28;20036;-74
2023/01/16 00:46:04;;;;;;;269.25;129.45;;;;;;;;;;1040628;28;20025;-73
2023/01/16 00:46:35;;;;;;;290.98;135.05;;;;;;;;;;1041185;28;20048;-73
2023/01/16 00:47:05;;;;;;;302.50;130.75;;;;;;;;;;1041181;28;20465;-74
2023/01/16 00:47:36;;;;;;;317.30;136.07;;;;;;;;;;1041016;28;20481;-74
2023/01/16 00:48:07;;;;;;;288.55;128.32;;;;;;;;;;1039973;28;20128;-74
2023/01/16 00:48:37;;;;;;;271.63;134.20;;;;;;;;;;1040843;28;20586;-74
2023/01/16 00:49:08;;;;;;;291.50;133.88;;;;;;;;;;1040627;28;20124;-74
2023/01/16 00:49:38;;;;;;;278.42;128.98;;;;;;;;;;1040554;28;20533;-74
2023/01/16 00:50:09;;;;;;;283.52;127.03;;;;;;;;;;1040667;28;20035;-74
2023/01/16 00:50:40;;;;;;;291.40;129.55;;;;;;;;;;1040807;28;20029;-74
2023/01/16 00:51:10;;;;;;;304.65;132.75;;;;;;;;;;1041065;28;20032;-74
2023/01/16 00:51:41;;;;;;;290.48;125.22;;;;;;;;;;1040895;28;20439;-74
2023/01/16 00:52:11;;;;;;;299.98;128.30;;;;;;;;;;1041157;28;20379;-74
2023/01/16 00:52:42;;;;;;;311.77;132.02;;;;;;;;;;1041040;28;20075;-74
2023/01/16 00:53:12;;;;;;;308.88;136.25;;;;;;;;;;1038595;28;20044;-74
2023/01/16 00:53:43;;;;;;;270.63;122.57;;;;;;;;;;1037206;28;20022;-74
2023/01/16 00:54:13;;;;;;;272.73;124.07;;;;;;;;;;1036974;28;20025;-74
2023/01/16 00:54:44;;;;;;;294.98;128.88;;;;;;;;;;1036902;28;20121;-74
2023/01/16 00:55:14;;;;;;;290.85;126.75;;;;;;;;;;1036984;28;20061;-74
2023/01/16 00:55:45;;;;;;;271.52;120.53;;;;;;;;;;1036967;28;20018;-74
2023/01/16 00:56:15;;;;;;;241.63;107.32;;;;;;;;;;1036573;28;20030;-74
2023/01/16 00:56:46;;;;;;;220.95;102.57;;;;;;;;;;1036710;28;20026;-74
2023/01/16 00:57:17;;;;;;;207.82;97.45;;;;;;;;;;1036516;28;20037;-74
2023/01/16 00:57:47;;;;;;;230.07;101.22;;;;;;;;;;1036777;28;20095;-74
2023/01/16 00:58:18;;;;;;;246.65;105.10;;;;;;;;;;1036940;28;20441;-74
2023/01/16 00:58:48;;;;;;;230.18;104.82;;;;;;;;;;1037079;28;20026;-74
2023/01/16 00:59:19;;;;;;;252.00;105.18;;;;;;;;;;1036906;28;20034;-74
2023/01/16 00:59:49;;;;;;;232.30;101.75;;;;;;;;;;1037044;28;20673;-74
2023/01/16 01:00:21;;;;;;;224.65;106.63;;;;;;;;;;1036910;28;20493;-74
2023/01/16 01:00:52;;;;;;;235.95;103.18;;;;;;;;;;1037074;28;20037;-74
2023/01/16 01:01:22;;;;;;;246.18;111.20;;;;;;;;;;1036887;28;20021;-74
2023/01/16 01:01:53;;;;;;;233.27;105.28;;;;;;;;;;1039447;28;20037;-74
2023/01/16 01:02:23;;;;;;;231.27;109.43;;;;;;;;;;1041025;28;20021;-74
2023/01/16 01:02:54;;;;;;;246.18;112.53;;;;;;;;;;1041167;28;20469;-74
2023/01/16 01:03:24;;;;;;;256.52;113.70;;;;;;;;;;1040579;28;20487;-74
2023/01/16 01:03:55;;;;;;;245.15;113.65;;;;;;;;;;1040890;28;20412;-74
2023/01/16 01:04:27;;;;;;;236.68;108.15;;;;;;;;;;1037410;28;20033;-74
2023/01/16 01:04:58;;;;;;;246.68;107.18;;;;;;;;;;1036634;28;20150;-75
2023/01/16 01:05:28;;;;;;;240.23;114.28;;;;;;;;;;1037096;28;20573;-75
2023/01/16 01:05:59;;;;;;;228.35;107.95;;;;;;;;;;1036989;28;20065;-75
2023/01/16 01:06:29;;;;;;;225.57;99.30;;;;;;;;;;1036903;28;20022;-75
2023/01/16 01:07:00;;;;;;;223.32;108.28;;;;;;;;;;1037001;28;20060;-75
2023/01/16 01:07:30;;;;;;;232.50;104.05;;;;;;;;;;1039269;28;20018;-75
2023/01/16 01:08:01;;;;;;;243.35;108.05;;;;;;;;;;1040854;28;20033;-75
2023/01/16 01:08:31;;;;;;;221.98;104.55;;;;;;;;;;1040303;28;20033;-75
2023/01/16 01:09:02;;;;;;;227.15;102.35;;;;;;;;;;1040712;28;20528;-74
2023/01/16 01:09:32;;;;;;;227.38;101.10;;;;;;;;;;1040418;28;20020;-74
2023/01/16 01:10:03;;;;;;;228.48;105.07;;;;;;;;;;1037060;28;20025;-74
2023/01/16 01:10:36;;;;;;;232.88;102.25;;;;;;;;;;1036907;28;20117;-74
2023/01/16 01:11:07;;;;;;;212.55;97.00;;;;;;;;;;1036870;28;20075;-74
2023/01/16 01:11:38;;;;;;;236.63;99.68;;;;;;;;;;1036897;28;20482;-74
2023/01/16 01:12:08;;;;;;;224.77;102.90;;;;;;;;;;1036800;28;20029;-74
2023/01/16 01:12:39;;;;;;;240.38;109.78;;;;;;;;;;1036909;28;20030;-74
2023/01/16 01:13:09;;;;;;;228.40;103.38;;;;;;;;;;1036465;28;20022;-74
2023/01/16 01:13:40;;;;;;;236.15;99.40;;;;;;;;;;1036680;28;20061;-74
2023/01/16 01:14:11;;;;;;;226.27;106.25;;;;;;;;;;1036725;28;20064;-74
2023/01/16 01:14:41;;;;;;;246.48;111.82;;;;;;;;;;1036499;28;20484;-74
2023/01/16 01:15:12;;;;;;;217.32;95.80;;;;;;;;;;1036825;28;20474;-74
2023/01/16 01:15:43;;;;;;;200.75;97.53;;;;;;;;;;1045436;23;20028;-73
2023/01/16 01:16:14;;;;;;;210.05;99.55;;;;;;;;;;1044206;28;20033;-73
2023/01/16 01:16:44;;;;;;;232.70;102.72;;;;;;;;;;1044616;28;20495;-73
2023/01/16 01:17:15;;;;;;;206.68;92.22;;;;;;;;;;1044391;28;20040;-74
2023/01/16 01:17:45;;;;;;;214.52;103.40;;;;;;;;;;1043205;28;20032;-74
2023/01/16 01:18:16;;;;;;;216.73;93.00;;;;;;;;;;1040203;28;20116;-74
2023/01/16 01:18:46;;;;;;;204.88;100.20;;;;;;;;;;1039743;28;20028;-74
2023/01/16 01:19:17;;;;;;;203.43;94.03;;;;;;;;;;1041842;28;20393;-74
2023/01/16 01:19:48;;;;;;;226.05;98.35;;;;;;;;;;1039683;28;20378;-74
2023/01/16 01:20:18;;;;;;;202.95;92.22;;;;;;;;;;1039694;28;20033;-74
2023/01/16 01:20:49;;;;;;;199.93;97.22;;;;;;;;;;1042301;28;20610;-74
2023/01/16 01:21:19;;;;;;;236.95;98.72;;;;;;;;;;1043744;28;20029;-74
2023/01/16 01:21:50;;;;;;;208.38;91.78;;;;;;;;;;1043945;28;20051;-74
2023/01/16 01:22:20;;;;;;;215.25;101.45;;;;;;;;;;1043922;28;20123;-74
2023/01/16 01:22:51;;;;;;;230.60;98.30;;;;;;;;;;1041613;28;20468;-74
2023/01/16 01:23:21;;;;;;;207.77;96.43;;;;;;;;;;1042089;28;20040;-74
2023/01/16 01:23:52;;;;;;;216.27;93.03;;;;;;;;;;1044004;28;20033;-74
2023/01/16 01:24:22;;;;;;;212.88;99.57;;;;;;;;;;1040606;28;21040;-74
2023/01/16 01:24:53;;;;;;;207.25;96.07;;;;;;;;;;1039680;28;20108;-74
2023/01/16 01:25:23;;;;;;;199.48;101.53;;;;;;;;;;1039357;28;20148;-74
2023/01/16 01:25:54;;;;;;;222.15;99.18;;;;;;;;;;1039575;28;20033;-74
2023/01/16 01:26:24;;;;;;;215.35;102.35;;;;;;;;;;1038879;28;20115;-74
2023/01/16 01:26:55;;;;;;;216.73;98.07;;;;;;;;;;1040113;28;20033;-74
2023/01/16 01:27:26;;;;;;;191.68;95.43;;;;;;;;;;1042495;28;20996;-74
2023/01/16 01:27:56;;;;;;;199.68;98.68;;;;;;;;;;1041439;28;20029;-74
2023/01/16 01:28:27;;;;;;;219.65;103.97;;;;;;;;;;1039376;28;20063;-74
2023/01/16 01:28:58;;;;;;;212.07;94.90;;;;;;;;;;1038983;28;20029;-74
2023/01/16 01:29:28;;;;;;;224.70;99.07;;;;;;;;;;1039994;28;20021;-74
2023/01/16 01:29:59;;;;;;;203.20;96.40;;;;;;;;;;1042890;28;20116;-74
2023/01/16 01:30:29;;;;;;;214.63;96.88;;;;;;;;;;1039300;28;20025;-74
2023/01/16 01:31:06;;;;;;;220.70;97.82;;;;;;;;;;1043754;28;20029;-74
2023/01/16 01:31:37;;;;;;;219.15;96.50;;;;;;;;;;1036377;28;20088;-74
2023/01/16 01:32:07;;;;;;;227.20;97.18;;;;;;;;;;1040031;28;20033;-74
2023/01/16 01:32:38;;;;;;;224.32;99.63;;;;;;;;;;1043367;28;20112;-74
2023/01/16 01:33:09;;;;;;;229.55;100.13;;;;;;;;;;1039763;28;20115;-74
2023/01/16 01:33:40;;;;;;;217.20;98.90;;;;;;;;;;1039932;28;20036;-74
2023/01/16 01:34:11;;;;;;;216.00;99.43;;;;;;;;;;1039752;28;20052;-74
2023/01/16 01:34:41;;;;;;;216.57;93.38;;;;;;;;;;1040168;28;20112;-74
2023/01/16 01:35:12;;;;;;;201.85;93.00;;;;;;;;;;1039474;28;20030;-74
2023/01/16 01:35:42;;;;;;;191.98;94.25;;;;;;;;;;1042736;28;20060;-74
2023/01/16 01:36:13;;;;;;;217.68;103.07;;;;;;;;;;1042158;28;20068;-74
2023/01/16 01:36:43;;;;;;;216.63;98.85;;;;;;;;;;1039525;28;20036;-74
2023/01/16 01:37:14;;;;;;;206.05;96.90;;;;;;;;;;1036589;28;20030;-74
2023/01/16 01:37:44;;;;;;;203.70;98.50;;;;;;;;;;1038980;28;20033;-74
2023/01/16 01:38:15;;;;;;;200.55;95.10;;;;;;;;;;1039400;28;20025;-74
2023/01/16 01:38:46;;;;;;;194.02;91.25;;;;;;;;;;1035548;28;20034;-74
2023/01/16 01:39:16;;;;;;;208.20;97.10;;;;;;;;;;1037691;28;20024;-74
2023/01/16 01:39:47;;;;;;;191.30;97.75;;;;;;;;;;1038329;28;20032;-74
2023/01/16 01:40:18;;;;;;;215.13;93.80;;;;;;;;;;1037818;28;20026;-74
2023/01/16 01:40:48;;;;;;;186.63;97.35;;;;;;;;;;1035550;28;20116;-74
2023/01/16 01:41:19;;;;;;;235.73;100.60;;;;;;;;;;1037622;28;20033;-74
2023/01/16 01:41:49;;;;;;;208.45;97.95;;;;;;;;;;1043633;28;20559;-74
2023/01/16 01:43:12;;;;;;;217.93;94.05;;;;;;;;;;1043744;28;20056;-74
2023/01/16 01:43:45;;;;;;;207.50;93.88;;;;;;;;;;1043083;28;20612;-74
2023/01/16 01:44:34;;;;;;;222.75;100.13;;;;;;;;;;1040544;28;20023;-74
2023/01/16 01:45:23;;;;;;;217.18;94.88;;;;;;;;;;1035933;28;20076;-74
2023/01/16 01:45:55;;;;;;;202.07;92.38;;;;;;;;;;1039884;28;20688;-74
2023/01/16 01:46:45;;;;;;;199.13;92.40;;;;;;;;;;1038931;28;20053;-74
2023/01/16 01:47:16;;;;;;;222.70;99.25;;;;;;;;;;1039555;28;20485;-74
2023/01/16 01:47:56;;;;;;;228.35;97.95;;;;;;;;;;1039633;28;20563;-74
2023/01/16 01:48:30;;;;;;;227.10;96.68;;;;;;;;;;1041329;28;20029;-74
2023/01/16 01:49:04;;;;;;;217.77;97.07;;;;;;;;;;1043204;28;20017;-74
2023/01/16 01:49:35;;;;;;;210.15;96.45;;;;;;;;;;1037715;28;20025;-74
2023/01/16 01:50:14;;;;;;;234.88;96.70;;;;;;;;;;1043724;28;20061;-74
2023/01/16 01:50:47;;;;;;;231.57;99.38;;;;;;;;;;1039361;28;20417;-74
2023/01/16 01:51:21;;;;;;;219.88;93.38;;;;;;;;;;1041739;28;20571;-74
2023/01/16 01:51:53;;;;;;;217.23;98.57;;;;;;;;;;1039472;28;20704;-74
2023/01/16 01:52:24;;;;;;;236.18;101.75;;;;;;;;;;1039277;28;20033;-74
2023/01/16 01:52:55;;;;;;;243.30;98.00;;;;;;;;;;1039722;28;20478;-74
2023/01/16 01:53:29;;;;;;;228.15;99.22;;;;;;;;;;1042755;28;20067;-74
2023/01/16 01:54:03;;;;;;;221.75;98.75;;;;;;;;;;1043600;28;20481;-74
2023/01/16 01:54:38;;;;;;;222.73;100.25;;;;;;;;;;1042813;28;20119;-74
2023/01/16 01:55:11;;;;;;;243.10;103.28;;;;;;;;;;1036175;28;20036;-74
2023/01/16 01:55:43;;;;;;;224.40;97.18;;;;;;;;;;1034667;28;20026;-74
2023/01/16 01:56:14;;;;;;;207.63;93.25;;;;;;;;;;1034048;28;20030;-74
2023/01/16 01:56:47;;;;;;;208.70;97.07;;;;;;;;;;1041069;28;20116;-74
2023/01/16 01:57:39;;;;;;;237.60;104.63;;;;;;;;;;1038870;28;20021;-74
2023/01/16 01:58:10;;;;;;;205.95;87.63;;;;;;;;;;1042919;28;20029;-74
2023/01/16 01:58:41;;;;;;;217.65;99.60;;;;;;;;;;1043381;28;20032;-73
2023/01/16 01:59:17;;;;;;;216.88;97.53;;;;;;;;;;1043636;28;20033;-74
2023/01/16 01:59:55;;;;;;;221.70;94.15;;;;;;;;;;1040815;28;20083;-74
2023/01/16 02:00:26;;;;;;;227.23;98.03;;;;;;;;;;1038992;28;20371;-74
2023/01/16 02:00:58;;;;;;;232.52;100.00;;;;;;;;;;1037223;28;20025;-74
2023/01/16 02:01:29;;;;;;;206.95;95.35;;;;;;;;;;1033409;28;20026;-74
2023/01/16 02:02:01;;;;;;;215.57;96.70;;;;;;;;;;1033356;28;20867;-74
2023/01/16 02:02:34;;;;;;;231.10;101.22;;;;;;;;;;1032946;28;20088;-74
2023/01/16 02:03:08;;;;;;;213.48;101.32;;;;;;;;;;1031600;28;20018;-74
2023/01/16 02:03:41;;;;;;;241.23;103.88;;;;;;;;;;1039454;28;20021;-74
2023/01/16 02:04:16;;;;;;;221.13;95.03;;;;;;;;;;1037933;28;20116;-74
2023/01/16 02:04:47;;;;;;;223.43;98.88;;;;;;;;;;1042640;28;20024;-74
2023/01/16 02:05:21;;;;;;;231.27;93.88;;;;;;;;;;1042161;28;20120;-74
2023/01/16 02:05:53;;;;;;;229.88;95.07;;;;;;;;;;1043182;28;20099;-74
2023/01/16 02:06:28;;;;;;;211.73;99.18;;;;;;;;;;1036437;28;20037;-74
2023/01/16 02:07:01;;;;;;;205.38;93.07;;;;;;;;;;1039015;28;20540;-74
2023/01/16 02:07:32;;;;;;;200.07;94.63;;;;;;;;;;1037582;28;20017;-74
2023/01/16 02:08:03;;;;;;;232.00;98.75;;;;;;;;;;1034984;28;20406;-74
2023/01/16 02:08:34;;;;;;;217.45;99.45;;;;;;;;;;1038880;28;20532;-74
2023/01/16 02:09:04;;;;;;;212.07;93.80;;;;;;;;;;1040067;28;20084;-74
2023/01/16 02:09:35;;;;;;;223.20;98.72;;;;;;;;;;1035363;28;20048;-74
2023/01/16 02:10:14;;;;;;;222.90;96.65;;;;;;;;;;1038325;28;20024;-74
2023/01/16 02:10:47;;;;;;;217.00;94.13;;;;;;;;;;1032932;28;20174;-74
2023/01/16 02:11:25;;;;;;;197.10;89.70;;;;;;;;;;1033927;28;20029;-74
2023/01/16 02:12:00;;;;;;;194.50;90.47;;;;;;;;;;1036538;28;20068;-74
2023/01/16 02:12:31;;;;;;;199.07;89.60;;;;;;;;;;1036545;28;20113;-74
2023/01/16 02:13:02;;;;;;;218.05;91.13;;;;;;;;;;1036936;28;20066;-74
2023/01/16 02:13:32;;;;;;;197.18;92.55;;;;;;;;;;1034577;28;20022;-74
2023/01/16 02:14:08;;;;;;;210.07;92.53;;;;;;;;;;1035220;28;20037;-74
2023/01/16 02:14:40;;;;;;;196.02;87.80;;;;;;;;;;1035735;28;20057;-74
2023/01/16 02:15:11;;;;;;;206.98;94.18;;;;;;;;;;1035712;28;20033;-73
2023/01/16 02:19:15;;;;;;;212.27;90.68;;;;;;;;;;1042987;28;20115;-73
2023/01/16 02:19:16;;;;;;;199.10;87.90;;;;;;;;;;1036851;28;20018;-74
2023/01/16 02:19:47;;;;;;;185.15;90.03;;;;;;;;;;1037773;28;20031;-74
2023/01/16 02:20:25;;;;;;;199.18;91.50;;;;;;;;;;1036861;28;20034;-74
2023/01/16 02:21:01;;;;;;;226.77;99.00;;;;;;;;;;1040852;28;20028;-74
2023/01/16 02:21:34;;;;;;;206.82;97.55;;;;;;;;;;1035531;28;20078;-74
2023/01/16 02:22:23;;;;;;;218.25;99.38;;;;;;;;;;1035059;28;20022;-74
2023/01/16 02:23:06;;;;;;;228.52;95.88;;;;;;;;;;1033068;28;20161;-74
2023/01/16 02:23:57;;;;;;;237.55;102.95;;;;;;;;;;1033146;28;20542;-74
2023/01/16 02:24:40;;;;;;;203.82;92.65;;;;;;;;;;1030186;28;20066;-74
2023/01/16 02:25:29;;;;;;;210.70;94.90;;;;;;;;;;1035853;28;20057;-74
2023/01/16 02:26:08;;;;;;;231.00;91.65;;;;;;;;;;1035608;28;20117;-74
2023/01/16 02:26:39;;;;;;;219.55;100.30;;;;;;;;;;1037683;28;20026;-74
2023/01/16 02:27:31;;;;;;;212.15;99.25;;;;;;;;;;1033218;28;20402;-75
2023/01/16 02:28:02;;;;;;;219.68;94.63;;;;;;;;;;1027376;28;20554;-74
2023/01/16 02:28:50;;;;;;;246.80;101.07;;;;;;;;;;1034132;28;20165;-74
2023/01/16 02:29:23;;;;;;;224.25;94.75;;;;;;;;;;1034057;28;20026;-74
2023/01/16 02:30:09;;;;;;;224.50;98.30;;;;;;;;;;1036654;28;20029;-74
2023/01/16 02:30:58;;;;;;;197.98;94.70;;;;;;;;;;1034071;28;20100;-74
2023/01/16 02:31:33;;;;;;;218.63;98.97;;;;;;;;;;1035382;28;20024;-74
2023/01/16 02:32:14;;;;;;;218.93;96.20;;;;;;;;;;1037731;28;20505;-74
2023/01/16 02:32:44;;;;;;;219.85;97.20;;;;;;;;;;1035748;28;20028;-74
2023/01/16 02:33:27;;;;;;;209.05;93.57;;;;;;;;;;1036635;28;20037;-74
2023/01/16 02:34:03;;;;;;;209.77;97.00;;;;;;;;;;1036556;28;20485;-74
2023/01/16 02:34:34;;;;;;;245.68;105.65;;;;;;;;;;1037881;28;20033;-74
2023/01/16 02:35:09;;;;;;;226.70;107.25;;;;;;;;;;1037360;28;20025;-74
2023/01/16 02:35:58;;;;;;;234.70;111.13;;;;;;;;;;1038013;28;20037;-74
2023/01/16 02:36:47;;;;;;;230.95;105.68;;;;;;;;;;1035104;28;20021;-74
2023/01/16 02:37:36;;;;;;;225.93;104.07;;;;;;;;;;1037660;28;20026;-74
2023/01/16 02:38:07;;;;;;;208.45;104.80;;;;;;;;;;1038194;28;20563;-74
2023/01/16 02:38:49;;;;;;;217.85;99.38;;;;;;;;;;1037757;28;20120;-74
2023/01/16 02:39:44;;;;;;;234.40;106.88;;;;;;;;;;1037169;28;20030;-74
2023/01/16 02:40:24;;;;;;;233.30;104.95;;;;;;;;;;1036421;28;20017;-74
2023/01/16 02:41:05;;;;;;;238.20;103.05;;;;;;;;;;1039549;28;20492;-74
2023/01/16 02:41:41;;;;;;;;;;;;;;;;;;1038897;28;20139;-74
2023/01/16 02:42:28;;;;;;;224.40;95.80;;;;;;;;;;1035493;28;19956;-74
2023/01/16 02:43:07;;;;;;;240.52;105.50;;;;;;;;;;1035512;28;20145;-74
2023/01/16 02:43:37;;;;;;;214.35;99.80;;;;;;;;;;1035601;28;20033;-74
2023/01/16 02:44:13;;;;;;;232.65;107.55;;;;;;;;;;1035311;28;20450;-74
2023/01/16 02:44:59;;;;;;;243.55;106.43;;;;;;;;;;1035882;28;20494;-74
2023/01/16 02:45:36;;;;;;;252.43;115.20;;;;;;;;;;1034855;28;20409;-74
2023/01/16 02:46:11;;;;;;;250.48;111.18;;;;;;;;;;1035297;28;20018;-74
2023/01/16 02:46:55;;;;;;;249.13;115.07;;;;;;;;;;1035891;28;20029;-74
2023/01/16 02:48:04;;;;;;;225.55;113.57;;;;;;;;;;1035157;28;20029;-74
2023/01/16 02:48:57;;;;;;;260.38;122.10;;;;;;;;;;1023207;28;20026;-74
2023/01/16 02:50:02;;;;;;;295.90;132.02;;;;;;;;;;1025148;28;20030;-74
2023/01/16 02:50:40;;;;;;;278.25;126.75;;;;;;;;;;1019281;29;20114;-74
2023/01/16 02:51:13;;;;;;;304.73;129.15;;;;;;;;;;1017427;29;20606;-74
2023/01/16 02:51:56;;;;;;;302.45;135.18;;;;;;;;;;1018808;29;20153;-74
2023/01/16 02:52:39;;;;;;;284.80;124.53;;;;;;;;;;1019159;29;20062;-74
2023/01/16 02:53:15;;;;;;;293.40;126.68;;;;;;;;;;1021665;28;20558;-74
2023/01/16 02:53:55;;;;;;;306.73;135.57;;;;;;;;;;1022947;29;20066;-74
2023/01/16 02:54:35;;;;;;;306.90;138.82;;;;;;;;;;1027484;28;20412;-74
2023/01/16 02:55:28;;;;;;;295.25;132.80;;;;;;;;;;1035161;28;20386;-74
2023/01/16 02:56:03;;;;;;;276.23;123.95;;;;;;;;;;1035561;28;20022;-74
2023/01/16 02:56:53;;;;;;;300.98;130.18;;;;;;;;;;1037306;28;20474;-74
2023/01/16 02:57:27;;;;;;;290.17;131.05;;;;;;;;;;1037170;28;20382;-74
2023/01/16 02:57:59;;;;;;;311.63;126.90;;;;;;;;;;1035516;28;20496;-74
2023/01/16 02:58:32;;;;;;;241.13;113.85;;;;;;;;;;1036092;28;20478;-74
2023/01/16 02:59:03;;;;;;;263.63;122.90;;;;;;;;;;1035901;28;20045;-74
2023/01/16 02:59:34;;;;;;;281.60;124.90;;;;;;;;;;1035486;28;20394;-74
2023/01/16 03:00:05;;;;;;;295.90;128.95;;;;;;;;;;1033985;28;20068;-74
2023/01/16 03:00:36;;;;;;;307.15;130.20;;;;;;;;;;1034585;28;20029;-74
2023/01/16 03:01:07;;;;;;;298.25;132.02;;;;;;;;;;1035309;28;20017;-74
2023/01/16 03:01:40;;;;;;;311.85;131.75;;;;;;;;;;1035198;28;20032;-74
2023/01/16 03:02:10;;;;;;;292.65;131.93;;;;;;;;;;1035452;28;20102;-74
2023/01/16 03:02:41;;;;;;;288.65;125.40;;;;;;;;;;1035722;28;20933;-74
2023/01/16 03:03:35;;;;;;;307.33;133.90;;;;;;;;;;1037546;28;20050;-74
2023/01/16 03:04:24;;;;;;;279.98;124.32;;;;;;;;;;1029600;28;20019;-74
2023/01/16 03:04:55;;;;;;;234.60;105.95;;;;;;;;;;1036082;28;20018;-74
2023/01/16 03:05:29;;;;;;;280.42;127.15;;;;;;;;;;1035865;28;20507;-74
2023/01/16 03:06:03;;;;;;;259.08;115.85;;;;;;;;;;1033448;28;20032;-74
2023/01/16 03:07:05;;;;;;;268.92;120.55;;;;;;;;;;1031352;28;20066;-74
2023/01/16 03:07:36;;;;;;;264.52;119.40;;;;;;;;;;1015151;29;20501;-74
2023/01/16 03:08:19;;;;;;;292.20;130.10;;;;;;;;;;1015327;29;20055;-74
2023/01/16 03:08:50;;;;;;;237.98;115.20;;;;;;;;;;1031406;28;20523;-74
2023/01/16 03:09:44;;;;;;;269.83;120.80;;;;;;;;;;1037050;28;20216;-74
2023/01/16 03:10:14;;;;;;;237.23;111.88;;;;;;;;;;1036395;28;20038;-74
2023/01/16 03:10:53;;;;;;;255.57;116.38;;;;;;;;;;1035996;28;20359;-74
2023/01/16 03:11:28;;;;;;;251.77;112.85;;;;;;;;;;1035742;28;20029;-74
2023/01/16 03:12:14;;;;;;;237.13;111.93;;;;;;;;;;1036626;28;20025;-74
2023/01/16 03:12:54;;;;;;;234.70;105.88;;;;;;;;;;1036327;28;20137;-74
2023/01/16 03:13:34;;;;;;;237.90;106.80;;;;;;;;;;1036975;28;20026;-75
2023/01/16 03:14:24;;;;;;;261.17;114.93;;;;;;;;;;1034367;28;20037;-75